Andrews, North Carolina
Current Conditions -  °F | °C
As of 10:15 PM on Wednesday 22 Oct 2014 (Local Time) from KRHP Reporting Station
Clear Clear  
Wind Chill:   Ceiling: Unl
Heat Index:   Visibility: 10mi
Dew Point:   Wind: 5mph
Humidity: 83%   Direction: 80°E
Pressure: 30.16"   Gusts: NA
Location:  35.2°N, 83.82°W
Report Text: KRHP 230215Z AUTO 08004KT 10SM CLR 07/04 A3016 RMK AO2 T00660039
Loading
Personal Weather Stations






























Interactive Weather Map
Tropical Storm Tracking
New forecast layout! Learn more

10-Day Weather Forecast

Advertisements
Track Severe Weather on mobile